createdAt,value
2023-01-17T00:00:01.878Z,56.46
2023-01-17T00:02:31.110Z,56.87
2023-01-17T00:05:16.761Z,56.89
2023-01-17T00:08:01.831Z,56.89
2023-01-17T00:10:28.934Z,56.71
2023-01-17T00:12:58.287Z,56.80
2023-01-17T00:15:26.646Z,57.06
2023-01-17T00:17:53.896Z,57.15
2023-01-17T00:20:42.604Z,57.15
2023-01-17T00:23:33.670Z,56.76
2023-01-17T00:26:03.361Z,56.91
2023-01-17T00:28:38.464Z,57.13
2023-01-17T00:31:06.832Z,57.03
2023-01-17T00:33:33.598Z,57.37
2023-01-17T00:36:00.651Z,54.88
2023-01-17T00:38:30.308Z,57.10
2023-01-17T00:41:02.745Z,57.38
2023-01-17T00:43:48.677Z,57.70
2023-01-17T00:46:34.389Z,57.42
2023-01-17T00:49:19.900Z,57.38
2023-01-17T00:52:05.158Z,57.30
2023-01-17T00:54:50.412Z,57.21
2023-01-17T00:57:35.878Z,57.39
2023-01-17T01:00:20.790Z,57.15
2023-01-17T01:03:06.113Z,57.04
2023-01-17T01:05:51.084Z,57.06
2023-01-17T01:08:42.776Z,57.06
2023-01-17T01:11:34.164Z,56.88
2023-01-17T01:14:20.308Z,57.19
2023-01-17T01:17:06.328Z,56.51
2023-01-17T01:19:51.787Z,57.18
2023-01-17T01:22:37.009Z,57.09
2023-01-17T01:25:22.642Z,57.06
2023-01-17T01:28:07.852Z,57.10
2023-01-17T01:30:52.789Z,57.38
2023-01-17T01:33:19.267Z,57.07
2023-01-17T01:35:54.252Z,56.90
2023-01-17T01:38:23.599Z,57.20
2023-01-17T01:40:52.447Z,57.17
2023-01-17T01:43:39.134Z,56.80
2023-01-17T01:46:06.306Z,56.99
2023-01-17T01:48:37.130Z,56.62
2023-01-17T01:51:08.236Z,56.87
2023-01-17T01:53:37.761Z,56.51
2023-01-17T01:56:08.421Z,56.61
2023-01-17T01:58:37.934Z,56.13
2023-01-17T02:01:05.649Z,56.33
2023-01-17T02:03:33.444Z,56.11
2023-01-17T02:06:08.653Z,56.22
2023-01-17T02:08:36.153Z,56.25
2023-01-17T02:11:03.278Z,56.06
2023-01-17T02:13:31.479Z,56.09
2023-01-17T02:16:04.289Z,55.81
2023-01-17T02:18:54.001Z,55.67
2023-01-17T02:21:24.584Z,55.81
2023-01-17T02:24:17.198Z,55.56
2023-01-17T02:27:02.080Z,55.42
2023-01-17T02:29:47.583Z,55.29
2023-01-17T02:32:41.187Z,55.91
2023-01-17T02:35:15.922Z,55.63
2023-01-17T02:37:56.414Z,56.02
2023-01-17T02:40:28.586Z,56.01
2023-01-17T02:43:05.725Z,55.95
2023-01-17T02:45:32.251Z,55.78
2023-01-17T02:47:58.813Z,56.32
2023-01-17T02:50:34.330Z,55.92
2023-01-17T02:53:13.970Z,55.93
2023-01-17T02:55:49.597Z,56.04
2023-01-17T02:58:43.489Z,55.66
2023-01-17T03:01:10.107Z,55.91
2023-01-17T03:04:19.290Z,55.61
2023-01-17T03:06:58.254Z,54.38
2023-01-17T03:09:25.656Z,56.00
2023-01-17T03:11:52.557Z,56.26
2023-01-17T03:14:19.106Z,56.15
2023-01-17T03:16:45.874Z,55.74
2023-01-17T03:19:14.763Z,54.62
2023-01-17T03:21:41.313Z,55.73
2023-01-17T03:24:08.056Z,55.62
2023-01-17T03:26:34.735Z,54.63
2023-01-17T03:29:01.282Z,55.57
2023-01-17T03:31:27.735Z,55.39
2023-01-17T03:33:54.300Z,55.82
2023-01-17T03:36:20.807Z,55.57
2023-01-17T03:38:47.344Z,55.59
2023-01-17T03:41:13.910Z,55.17
2023-01-17T03:43:40.532Z,55.45
2023-01-17T03:46:17.325Z,55.69
2023-01-17T03:48:43.801Z,55.48
2023-01-17T03:51:10.362Z,55.05
2023-01-17T03:53:36.861Z,55.28
2023-01-17T03:56:03.784Z,54.97
2023-01-17T03:58:30.244Z,54.47
2023-01-17T04:00:56.927Z,55.28
2023-01-17T04:03:23.514Z,54.60
2023-01-17T04:05:50.103Z,55.80
2023-01-17T04:08:16.972Z,55.68
2023-01-17T04:10:43.696Z,55.47
2023-01-17T04:13:10.242Z,55.99
2023-01-17T04:15:36.817Z,55.98
2023-01-17T04:18:05.184Z,56.31
2023-01-17T04:20:37.181Z,56.24
2023-01-17T04:23:04.508Z,56.40
2023-01-17T04:25:31.306Z,56.06
2023-01-17T04:27:58.301Z,55.08
2023-01-17T04:30:25.008Z,55.59
2023-01-17T04:32:51.676Z,55.75
2023-01-17T04:35:19.617Z,55.42
2023-01-17T04:37:47.187Z,55.89
2023-01-17T04:40:14.522Z,55.83
2023-01-17T04:42:41.291Z,55.61
2023-01-17T04:45:07.964Z,55.17
2023-01-17T04:47:34.585Z,55.40
2023-01-17T04:50:01.362Z,55.52
2023-01-17T04:52:27.833Z,54.92
2023-01-17T04:54:54.390Z,55.61
2023-01-17T04:57:20.989Z,55.37
2023-01-17T04:59:47.541Z,55.46
2023-01-17T05:02:15.036Z,55.45
2023-01-17T05:04:41.556Z,55.21
2023-01-17T05:07:08.366Z,55.42
2023-01-17T05:09:35.058Z,54.82
2023-01-17T05:12:02.007Z,55.26
2023-01-17T05:14:28.518Z,54.96
2023-01-17T05:16:58.647Z,56.30
2023-01-17T05:19:26.872Z,55.80
2023-01-17T05:21:53.517Z,55.32
2023-01-17T05:24:20.064Z,57.43
2023-01-17T05:26:54.913Z,55.59
2023-01-17T05:29:22.027Z,55.50
2023-01-17T05:31:48.600Z,55.46
2023-01-17T05:34:15.186Z,55.21
2023-01-17T05:36:41.663Z,54.97
2023-01-17T05:39:08.289Z,55.36
2023-01-17T05:41:34.757Z,55.61
2023-01-17T05:44:01.313Z,55.49
2023-01-17T05:46:27.827Z,55.57
2023-01-17T05:48:54.352Z,55.81
2023-01-17T05:51:20.832Z,55.74
2023-01-17T05:53:47.339Z,56.21
2023-01-17T05:56:14.207Z,56.01
2023-01-17T05:58:40.726Z,54.59
2023-01-17T06:01:07.317Z,55.73
2023-01-17T06:03:33.860Z,55.90
2023-01-17T06:06:00.394Z,55.71
2023-01-17T06:08:26.884Z,55.83
2023-01-17T06:10:53.410Z,55.71
2023-01-17T06:13:22.035Z,55.64
2023-01-17T06:15:48.998Z,55.81
2023-01-17T06:18:17.736Z,55.64
2023-01-17T06:20:44.909Z,55.90
2023-01-17T06:23:13.939Z,55.98
2023-01-17T06:25:45.633Z,56.08
2023-01-17T06:28:14.529Z,56.36
2023-01-17T06:30:41.541Z,56.10
2023-01-17T06:33:08.021Z,56.39
2023-01-17T06:35:34.555Z,56.51
2023-01-17T06:38:01.156Z,56.16
2023-01-17T06:40:29.284Z,56.89
2023-01-17T06:43:03.863Z,56.96
2023-01-17T06:45:32.267Z,57.21
2023-01-17T06:48:04.139Z,56.96
2023-01-17T06:50:31.836Z,56.94
2023-01-17T06:53:00.990Z,57.44
2023-01-17T06:55:29.469Z,57.21
2023-01-17T06:57:57.434Z,57.32
2023-01-17T07:00:24.287Z,57.21
2023-01-17T07:02:51.838Z,57.38
2023-01-17T07:05:19.006Z,57.38
2023-01-17T07:07:46.110Z,57.34
2023-01-17T07:10:14.158Z,57.63
2023-01-17T07:12:41.122Z,57.62
2023-01-17T07:15:08.325Z,57.94
2023-01-17T07:17:35.407Z,57.76
2023-01-17T07:20:01.977Z,57.85
2023-01-17T07:22:28.475Z,57.78
2023-01-17T07:24:58.639Z,57.76
2023-01-17T07:27:26.310Z,57.86
2023-01-17T07:29:54.294Z,57.78
2023-01-17T07:32:21.001Z,57.65
2023-01-17T07:34:47.549Z,57.70
2023-01-17T07:37:15.284Z,57.70
2023-01-17T07:39:42.196Z,58.08
2023-01-17T07:42:09.309Z,57.74
2023-01-17T07:44:36.050Z,57.97
2023-01-17T07:47:02.689Z,57.99
2023-01-17T07:49:29.196Z,58.00
2023-01-17T07:51:55.703Z,57.81
2023-01-17T07:54:22.252Z,57.76
2023-01-17T07:56:49.090Z,57.94
2023-01-17T07:59:15.577Z,56.51
2023-01-17T08:01:42.228Z,57.72
2023-01-17T08:04:09.498Z,56.32
2023-01-17T08:06:37.905Z,57.46
2023-01-17T08:09:04.372Z,57.36
2023-01-17T08:11:30.870Z,57.21
2023-01-17T08:13:59.481Z,57.17
2023-01-17T08:16:28.037Z,57.28
2023-01-17T08:18:55.447Z,57.43
2023-01-17T08:21:24.406Z,57.17
2023-01-17T08:23:52.287Z,57.54
2023-01-17T08:26:23.493Z,57.38
2023-01-17T08:29:00.622Z,57.40
2023-01-17T08:31:33.158Z,57.28
2023-01-17T08:33:59.922Z,57.54
2023-01-17T08:36:27.742Z,56.62
2023-01-17T08:38:55.495Z,57.00
2023-01-17T08:41:23.811Z,56.63
2023-01-17T08:43:51.835Z,57.02
2023-01-17T08:46:19.004Z,56.80
2023-01-17T08:48:45.845Z,56.09
2023-01-17T08:51:12.285Z,55.58
2023-01-17T08:53:38.840Z,55.83
2023-01-17T08:56:05.827Z,55.89
2023-01-17T08:58:33.003Z,56.00
2023-01-17T09:01:03.428Z,56.02
2023-01-17T09:03:31.485Z,56.22
2023-01-17T09:06:06.126Z,55.76
2023-01-17T09:08:33.037Z,55.69
2023-01-17T09:11:03.854Z,55.59
2023-01-17T09:13:30.326Z,55.40
2023-01-17T09:15:57.985Z,55.02
2023-01-17T09:18:28.610Z,55.41
2023-01-17T09:20:59.104Z,55.59
2023-01-17T09:23:27.876Z,56.27
2023-01-17T09:25:59.904Z,57.19
2023-01-17T09:28:27.449Z,57.60
2023-01-17T09:30:54.749Z,57.06
2023-01-17T09:33:23.258Z,55.51
2023-01-17T09:35:49.943Z,56.24
2023-01-17T09:38:17.050Z,55.31
2023-01-17T09:40:49.000Z,55.19
2023-01-17T09:43:40.042Z,55.21
2023-01-17T09:46:22.549Z,55.13
2023-01-17T09:49:02.010Z,54.16
2023-01-17T09:51:28.670Z,53.32
2023-01-17T09:53:55.487Z,54.14
2023-01-17T09:56:29.528Z,53.89
2023-01-17T09:59:18.579Z,53.67
2023-01-17T10:02:02.287Z,52.87
2023-01-17T10:04:34.977Z,52.46
2023-01-17T10:07:07.808Z,53.24
2023-01-17T10:09:43.685Z,52.00
2023-01-17T10:12:31.192Z,51.87
2023-01-17T10:15:27.915Z,51.84
2023-01-17T10:18:05.411Z,53.37
2023-01-17T10:20:40.937Z,51.64
2023-01-17T10:23:13.471Z,51.41
2023-01-17T10:25:51.289Z,51.67
2023-01-17T10:28:48.764Z,51.59
2023-01-17T10:31:23.261Z,49.88
2023-01-17T10:34:00.643Z,50.29
2023-01-17T10:36:34.999Z,50.41
2023-01-17T10:39:23.188Z,49.98
2023-01-17T10:41:55.672Z,50.88
2023-01-17T10:44:41.216Z,49.04
2023-01-17T10:47:10.766Z,49.05
2023-01-17T10:49:45.053Z,48.82
2023-01-17T10:52:29.776Z,48.76
2023-01-17T10:55:18.086Z,49.84
2023-01-17T10:57:47.551Z,49.41
2023-01-17T11:00:28.860Z,48.68
2023-01-17T11:02:55.571Z,48.87
2023-01-17T11:05:31.921Z,48.99
2023-01-17T11:08:05.648Z,47.06
2023-01-17T11:10:49.920Z,48.38
2023-01-17T11:13:19.355Z,47.05
2023-01-17T11:15:49.897Z,47.07
2023-01-17T11:18:19.523Z,46.83
2023-01-17T11:20:46.947Z,46.38
2023-01-17T11:23:24.499Z,46.15
2023-01-17T11:25:58.198Z,46.37
2023-01-17T11:28:34.196Z,45.84
2023-01-17T11:31:24.139Z,46.60
2023-01-17T11:34:05.282Z,45.13
2023-01-17T11:36:32.640Z,45.10
2023-01-17T11:41:28.051Z,46.26
2023-01-17T11:43:57.356Z,45.79
2023-01-17T11:46:24.594Z,44.67
2023-01-17T11:48:56.013Z,44.25
2023-01-17T11:51:25.342Z,44.66
2023-01-17T11:53:53.739Z,44.81
2023-01-17T11:56:28.033Z,44.96
2023-01-17T11:59:09.573Z,44.83
2023-01-17T12:01:58.093Z,44.43
2023-01-17T12:04:37.356Z,44.91
2023-01-17T12:07:27.092Z,44.26
2023-01-17T12:10:00.636Z,44.00
2023-01-17T12:13:00.813Z,44.10
2023-01-17T12:15:45.935Z,42.71
2023-01-17T12:18:27.148Z,43.97
2023-01-17T12:21:04.152Z,44.25
2023-01-17T12:23:45.335Z,43.71
2023-01-17T12:26:26.582Z,44.73
2023-01-17T12:29:02.762Z,44.97
2023-01-17T12:31:46.986Z,43.68
2023-01-17T12:34:23.586Z,43.71
2023-01-17T12:36:58.509Z,42.35
2023-01-17T12:39:33.714Z,41.98
2023-01-17T12:42:08.953Z,42.53
2023-01-17T12:44:59.155Z,43.42
2023-01-17T12:47:25.797Z,42.10
2023-01-17T12:50:06.658Z,43.59
2023-01-17T12:52:48.462Z,43.58
2023-01-17T12:55:21.061Z,42.55
2023-01-17T12:58:01.218Z,42.63
2023-01-17T13:00:30.065Z,41.89
2023-01-17T13:03:07.689Z,43.12
2023-01-17T13:05:38.368Z,41.70
2023-01-17T13:08:42.394Z,43.14
2023-01-17T13:11:21.239Z,42.26
2023-01-17T13:13:51.479Z,41.24
2023-01-17T13:16:24.377Z,41.71
2023-01-17T13:18:52.261Z,41.62
2023-01-17T13:21:21.734Z,41.86
2023-01-17T13:23:59.105Z,42.54
2023-01-17T13:26:44.348Z,44.22
2023-01-17T13:29:32.719Z,42.74
2023-01-17T13:32:20.806Z,43.11
2023-01-17T13:35:12.058Z,43.35
2023-01-17T13:37:55.893Z,42.13
2023-01-17T13:40:29.872Z,42.74
2023-01-17T13:43:03.479Z,42.20
2023-01-17T13:45:35.898Z,42.52
2023-01-17T13:48:14.695Z,41.20
2023-01-17T13:50:41.195Z,40.44
2023-01-17T13:53:35.814Z,42.52
2023-01-17T13:56:22.515Z,42.47
2023-01-17T13:58:50.308Z,40.08
2023-01-17T14:01:22.956Z,40.55
2023-01-17T14:03:49.470Z,39.87
2023-01-17T14:06:46.074Z,41.05
2023-01-17T14:09:12.609Z,40.95
2023-01-17T14:11:54.150Z,41.63
2023-01-17T14:14:45.553Z,42.82
2023-01-17T14:17:28.133Z,42.16
2023-01-17T14:20:00.274Z,41.21
2023-01-17T14:22:36.568Z,40.80
2023-01-17T14:25:11.762Z,41.78
2023-01-17T14:27:50.471Z,42.50
2023-01-17T14:30:17.501Z,42.96
2023-01-17T14:32:59.053Z,42.66
2023-01-17T14:35:34.803Z,41.33
2023-01-17T14:38:03.404Z,41.81
2023-01-17T14:40:33.098Z,39.92
2023-01-17T14:43:06.927Z,40.97
2023-01-17T14:45:35.773Z,40.63
2023-01-17T14:48:14.336Z,40.72
2023-01-17T14:50:43.542Z,39.51
2023-01-17T14:53:13.107Z,39.94
2023-01-17T14:55:48.412Z,40.38
2023-01-17T14:58:19.598Z,40.09
2023-01-17T15:00:49.319Z,42.33
2023-01-17T15:03:16.837Z,41.71
2023-01-17T15:05:47.207Z,40.61
2023-01-17T15:08:16.749Z,40.51
2023-01-17T15:11:05.381Z,43.18
2023-01-17T15:13:45.234Z,41.51
2023-01-17T15:16:27.993Z,41.16
2023-01-17T15:18:55.697Z,39.73
2023-01-17T15:21:24.832Z,42.66
2023-01-17T15:24:04.098Z,41.61
2023-01-17T15:26:34.871Z,39.70
2023-01-17T15:29:06.577Z,39.86
2023-01-17T15:31:42.621Z,40.37
2023-01-17T15:34:16.798Z,39.94
2023-01-17T15:36:47.733Z,39.21
2023-01-17T15:39:23.139Z,40.14
2023-01-17T15:41:54.826Z,39.83
2023-01-17T15:44:46.392Z,40.35
2023-01-17T15:47:35.505Z,41.54
2023-01-17T15:50:21.271Z,41.56
2023-01-17T15:52:52.728Z,41.25
2023-01-17T15:55:22.623Z,41.18
2023-01-17T15:57:49.655Z,41.27
2023-01-17T16:00:24.141Z,41.84
2023-01-17T16:02:55.867Z,41.99
2023-01-17T16:05:23.126Z,41.87
2023-01-17T16:07:50.858Z,41.81
2023-01-17T16:10:18.790Z,41.71
2023-01-17T16:12:46.548Z,41.76
2023-01-17T16:15:15.346Z,42.18
2023-01-17T16:17:47.414Z,42.12
2023-01-17T16:20:19.318Z,42.24
2023-01-17T16:22:47.328Z,42.16
2023-01-17T16:25:19.930Z,42.67
2023-01-17T16:27:47.276Z,42.77
2023-01-17T16:30:19.416Z,43.06
2023-01-17T16:32:48.595Z,42.77
2023-01-17T16:35:20.805Z,43.15
2023-01-17T16:37:56.013Z,43.63
2023-01-17T16:40:25.038Z,43.56
2023-01-17T16:42:51.700Z,43.50
2023-01-17T16:45:18.953Z,43.97
2023-01-17T16:47:47.666Z,44.11
2023-01-17T16:50:16.967Z,44.15
2023-01-17T16:52:43.529Z,44.30
2023-01-17T16:55:13.025Z,44.20
2023-01-17T16:57:39.608Z,44.23
2023-01-17T17:00:06.801Z,44.02
2023-01-17T17:02:33.618Z,44.05
2023-01-17T17:05:00.118Z,44.56
2023-01-17T17:07:26.766Z,44.41
2023-01-17T17:09:53.347Z,44.53
2023-01-17T17:12:19.850Z,44.88
2023-01-17T17:14:46.336Z,44.88
2023-01-17T17:17:12.816Z,45.38
2023-01-17T17:19:39.762Z,45.19
2023-01-17T17:22:06.724Z,45.32
2023-01-17T17:24:33.596Z,45.51
2023-01-17T17:27:00.030Z,45.65
2023-01-17T17:29:26.626Z,45.94
2023-01-17T17:31:53.893Z,45.76
2023-01-17T17:34:20.885Z,45.87
2023-01-17T17:36:47.448Z,46.32
2023-01-17T17:41:51.547Z,46.30
2023-01-17T17:44:18.135Z,46.43
2023-01-17T17:46:45.753Z,46.47
2023-01-17T17:49:12.273Z,46.25
2023-01-17T17:51:40.503Z,46.51
2023-01-17T17:54:10.185Z,46.81
2023-01-17T17:56:37.626Z,46.91
2023-01-17T17:59:06.243Z,46.82
2023-01-17T18:01:33.144Z,47.15
2023-01-17T18:04:03.117Z,46.99
2023-01-17T18:06:30.052Z,47.57
2023-01-17T18:08:56.713Z,47.28
2023-01-17T18:11:26.121Z,47.69
2023-01-17T18:13:54.931Z,47.71
2023-01-17T18:16:27.750Z,47.89
2023-01-17T18:18:56.299Z,47.79
2023-01-17T18:21:25.528Z,47.92
2023-01-17T18:23:54.126Z,48.08
2023-01-17T18:26:23.979Z,48.20
2023-01-17T18:28:55.284Z,48.30
2023-01-17T18:31:24.077Z,48.29
2023-01-17T18:33:51.779Z,48.49
2023-01-17T18:36:18.443Z,48.67
2023-01-17T18:38:46.758Z,48.52
2023-01-17T18:41:35.660Z,48.60
2023-01-17T18:44:05.998Z,48.38
2023-01-17T18:46:33.533Z,48.39
2023-01-17T18:49:00.536Z,48.64
2023-01-17T18:51:29.753Z,48.95
2023-01-17T18:53:56.364Z,49.00
2023-01-17T18:56:23.150Z,49.23
2023-01-17T18:58:50.610Z,49.49
2023-01-17T19:01:21.143Z,49.37
2023-01-17T19:03:49.916Z,49.05
2023-01-17T19:06:24.595Z,48.89
2023-01-17T19:08:54.369Z,49.29
2023-01-17T19:11:22.619Z,49.70
2023-01-17T19:13:50.394Z,49.39
2023-01-17T19:16:26.489Z,49.45
2023-01-17T19:18:53.867Z,49.71
2023-01-17T19:21:22.647Z,49.78
2023-01-17T19:23:50.620Z,49.75
2023-01-17T19:26:19.874Z,49.88
2023-01-17T19:28:48.559Z,49.78
2023-01-17T19:31:18.597Z,49.97
2023-01-17T19:33:46.930Z,50.15
2023-01-17T19:36:18.545Z,49.94
2023-01-17T19:38:58.708Z,50.20
2023-01-17T19:41:30.513Z,50.06
2023-01-17T19:44:02.067Z,50.05
2023-01-17T19:46:29.247Z,49.92
2023-01-17T19:48:57.149Z,50.25
2023-01-17T19:51:24.479Z,50.16
2023-01-17T19:53:51.259Z,50.31
2023-01-17T19:56:19.041Z,48.96
2023-01-17T19:58:46.451Z,50.07
2023-01-17T20:01:15.940Z,50.44
2023-01-17T20:03:46.766Z,50.18
2023-01-17T20:06:15.453Z,50.53
2023-01-17T20:08:42.078Z,50.45
2023-01-17T20:11:11.519Z,50.37
2023-01-17T20:13:38.022Z,50.45
2023-01-17T20:16:06.900Z,50.60
2023-01-17T20:18:34.631Z,51.11
2023-01-17T20:21:08.489Z,51.23
2023-01-17T20:23:38.433Z,51.19
2023-01-17T20:26:06.216Z,51.07
2023-01-17T20:28:35.760Z,51.28
2023-01-17T20:31:07.779Z,51.15
2023-01-17T20:33:35.337Z,51.22
2023-01-17T20:36:10.724Z,51.17
2023-01-17T20:38:45.162Z,51.26
2023-01-17T20:41:18.959Z,51.58
2023-01-17T20:43:48.374Z,51.32
2023-01-17T20:46:15.708Z,51.32
2023-01-17T20:48:50.726Z,51.31
2023-01-17T20:51:19.069Z,51.25
2023-01-17T20:53:47.170Z,51.68
2023-01-17T20:56:15.400Z,51.76
2023-01-17T20:58:42.231Z,51.73
2023-01-17T21:01:09.644Z,50.29
2023-01-17T21:03:37.785Z,51.44
2023-01-17T21:06:10.059Z,51.50
2023-01-17T21:08:39.412Z,51.79
2023-01-17T21:11:07.984Z,51.75
2023-01-17T21:13:35.267Z,52.16
2023-01-17T21:16:02.589Z,51.98
2023-01-17T21:18:32.794Z,52.24
2023-01-17T21:21:12.350Z,52.06
2023-01-17T21:23:41.586Z,52.34
2023-01-17T21:26:10.933Z,52.23
2023-01-17T21:28:39.730Z,52.61
2023-01-17T21:31:18.162Z,52.82
2023-01-17T21:33:45.172Z,52.53
2023-01-17T21:36:12.068Z,52.60
2023-01-17T21:38:39.123Z,52.94
2023-01-17T21:41:05.846Z,52.79
2023-01-17T21:43:32.462Z,52.58
2023-01-17T21:46:02.908Z,52.78
2023-01-17T21:48:29.529Z,53.06
2023-01-17T21:50:56.066Z,52.77
